Time;durP1;ratioP1;P1;durP2;ratioP2;P2;SDS_P1;SDS_P2;PMS_P1;PMS_P2;Temp;Humidity;BMP_temperature;BMP_pressure;BME280_temperature;BME280_humidity;BME280_pressure;Samples;Min_cycle;Max_cycle;Signal;HPM_P1;HPM_P2
2021/01/11 00:05:27;;;;;;;27.32;10.95;;;;;;;-0.97;88.93;99325.01;1805658;76;21117;-82
2021/01/11 00:08:04;;;;;;;26.73;11.15;;;;;;;-0.95;88.62;99331.87;1836248;75;22385;31
2021/01/11 00:10:36;;;;;;;24.10;11.25;;;;;;;-0.88;87.91;99335.42;1804690;75;22594;31
2021/01/11 00:15:58;;;;;;;;;;;;;;;-0.91;88.73;99330.26;1730868;78;21391;-83
2021/01/11 00:31:25;;;;;;;26.80;10.48;;;;;;;-0.91;88.96;99317.50;1751733;78;21233;31
2021/01/11 00:33:53;;;;;;;28.55;11.83;;;;;;;-0.90;88.57;99323.03;1729154;77;21217;-82
2021/01/11 00:42:45;;;;;;;24.87;9.90;;;;;;;-0.92;88.30;99278.75;1679950;82;21455;-82
2021/01/11 00:45:13;;;;;;;26.10;10.10;;;;;;;-0.94;88.04;99291.47;1746128;77;21130;-81
2021/01/11 00:47:54;;;;;;;30.37;10.60;;;;;;;-0.98;89.07;99291.36;1789897;75;21196;31
2021/01/11 00:50:23;;;;;;;23.00;9.55;;;;;;;-0.93;88.63;99265.55;1804860;76;21280;-81
2021/01/11 00:59:13;;;;;;;29.37;11.97;;;;;;;-0.89;88.90;99263.52;1803964;75;21123;-82
2021/01/11 01:01:49;;;;;;;30.17;12.13;;;;;;;-0.87;88.71;99265.27;1798662;75;22398;-77
2021/01/11 01:04:20;;;;;;;26.42;10.43;;;;;;;-0.85;88.57;99292.12;1822831;75;21240;-82
2021/01/11 01:06:48;;;;;;;26.80;11.20;;;;;;;-0.87;89.01;99289.95;1822504;75;21300;-81
2021/01/11 01:09:26;;;;;;;25.37;10.30;;;;;;;-0.86;89.05;99303.99;1815476;75;21233;31
2021/01/11 01:12:07;;;;;;;27.98;10.95;;;;;;;-0.83;88.85;99298.98;1793090;76;21300;31
2021/01/11 01:21:07;;;;;;;25.77;10.15;;;;;;;-0.73;88.91;99330.70;1746066;77;21240;31
2021/01/11 01:23:53;;;;;;;31.47;12.20;;;;;;;-0.66;88.80;99345.73;1771520;77;21229;31
2021/01/11 01:26:20;;;;;;;25.35;10.78;;;;;;;-0.58;88.69;99326.34;1769918;77;21411;-80
2021/01/11 01:29:15;;;;;;;28.35;12.30;;;;;;;-0.54;88.38;99315.80;1760222;75;21167;31
2021/01/11 01:31:43;;;;;;;22.55;10.82;;;;;;;-0.52;88.66;99315.00;1810072;75;21174;-76
2021/01/11 01:34:10;;;;;;;23.60;9.85;;;;;;;-0.48;88.68;99317.21;1843522;75;21138;-79
2021/01/11 01:36:38;;;;;;;25.75;11.18;;;;;;;-0.43;88.51;99305.42;1820145;76;21250;-80
2021/01/11 01:39:06;;;;;;;25.85;10.72;;;;;;;-0.40;87.90;99302.91;1773152;76;21204;-80
2021/01/11 01:41:34;;;;;;;24.85;10.03;;;;;;;-0.45;87.71;99307.94;1746684;77;22880;-80
2021/01/11 01:44:03;;;;;;;27.50;9.60;;;;;;;-0.44;87.79;99294.34;1725548;77;21540;-81
2021/01/11 01:46:32;;;;;;;25.97;10.23;;;;;;;-0.42;87.48;99279.03;1720034;77;21260;-81
2021/01/11 01:49:01;;;;;;;27.05;10.20;;;;;;;-0.48;88.02;99282.73;1760122;79;21177;-81
2021/01/11 01:51:29;;;;;;;24.80;10.35;;;;;;;-0.49;88.15;99261.86;1784392;77;21233;-80
2021/01/11 01:53:57;;;;;;;23.65;9.58;;;;;;;-0.52;88.39;99250.29;1826579;75;21248;-81
2021/01/11 01:56:26;;;;;;;27.85;10.85;;;;;;;-0.51;88.17;99263.10;1787773;76;21530;-82
2021/01/11 01:58:55;;;;;;;20.25;10.23;;;;;;;-0.53;88.73;99257.09;1784805;78;21228;-81
2021/01/11 02:01:23;;;;;;;22.13;9.20;;;;;;;-0.53;89.10;99229.43;1764262;78;21261;-80
2021/01/11 02:07:00;;;;;;;19.10;8.38;;;;;;;-0.55;88.71;99240.88;1779988;77;21101;-81
2021/01/11 02:09:41;;;;;;;21.80;8.88;;;;;;;-0.62;89.40;99228.41;1787178;77;21304;-82
2021/01/11 02:12:18;;;;;;;21.93;7.85;;;;;;;-0.61;89.51;99238.20;1734615;77;21325;31
2021/01/11 02:15:11;;;;;;;20.75;7.53;;;;;;;-0.62;89.22;99223.30;1732213;78;21247;-81
2021/01/11 02:17:59;;;;;;;18.85;7.30;;;;;;;-0.65;89.37;99223.22;1761835;78;21326;31
2021/01/11 02:23:38;;;;;;;19.80;7.90;;;;;;;-0.56;89.30;99259.99;1778822;76;21142;-81
2021/01/11 02:26:32;;;;;;;21.30;9.10;;;;;;;-0.52;88.92;99251.56;1797033;77;21129;-81
2021/01/11 02:32:29;;;;;;;18.40;7.20;;;;;;;-0.56;89.29;99263.83;1788755;78;21327;31
2021/01/11 02:35:04;;;;;;;20.00;8.35;;;;;;;-0.56;89.43;99254.46;1768914;77;21222;-80
2021/01/11 02:40:50;;;;;;;19.73;8.15;;;;;;;-0.53;89.32;99265.19;1785725;75;21183;-80
2021/01/11 02:46:27;;;;;;;19.00;7.58;;;;;;;-0.49;89.21;99274.64;1742774;79;21137;-82
2021/01/11 02:52:18;;;;;;;19.47;8.97;;;;;;;-0.45;89.13;99297.72;1678814;80;21305;-78
2021/01/11 02:54:54;;;;;;;21.05;8.75;;;;;;;-0.44;89.17;99270.47;1695247;80;21505;-84
2021/01/11 02:57:34;;;;;;;14.47;6.67;;;;;;;-0.42;88.82;99275.20;1667541;82;21352;-81
2021/01/11 03:00:07;;;;;;;22.05;7.72;;;;;;;-0.44;88.98;99271.75;1689261;82;21284;-82
2021/01/11 03:02:40;;;;;;;19.87;8.05;;;;;;;-0.46;89.28;99259.36;1713895;81;21322;-82
2021/01/11 03:05:10;;;;;;;19.20;7.83;;;;;;;-0.44;89.21;99267.92;1681688;81;21325;-82
2021/01/11 03:07:39;;;;;;;18.92;7.80;;;;;;;-0.44;89.10;99265.36;1697575;79;21581;31
2021/01/11 03:10:07;;;;;;;20.65;7.92;;;;;;;-0.43;89.15;99266.69;1731949;79;21322;-80
2021/01/11 03:12:35;;;;;;;16.97;8.18;;;;;;;-0.45;89.28;99246.63;1743558;78;21186;-81
2021/01/11 03:15:04;;;;;;;20.30;8.78;;;;;;;-0.46;89.48;99239.81;1755535;80;21256;-80
2021/01/11 03:17:32;;;;;;;20.77;9.13;;;;;;;-0.43;89.13;99256.89;1738217;78;22792;-79
2021/01/11 03:20:00;;;;;;;20.30;8.18;;;;;;;-0.45;89.51;99253.02;1799410;77;21684;-81
2021/01/11 03:22:27;;;;;;;20.88;8.25;;;;;;;-0.44;89.17;99258.59;1795975;76;21232;-80
2021/01/11 03:24:55;;;;;;;21.17;8.10;;;;;;;-0.45;89.14;99262.37;1786292;76;21272;-80
2021/01/11 03:27:22;;;;;;;20.15;8.23;;;;;;;-0.49;89.64;99256.76;1770411;79;21229;-80
2021/01/11 03:29:50;;;;;;;18.32;8.88;;;;;;;-0.49;89.43;99252.50;1770471;78;21265;-80
2021/01/11 03:32:18;;;;;;;18.70;8.05;;;;;;;-0.46;89.39;99256.80;1828483;77;21228;-80
2021/01/11 03:34:46;;;;;;;19.57;8.28;;;;;;;-0.43;89.37;99246.67;1821091;77;21177;-81
2021/01/11 03:37:14;;;;;;;17.40;8.23;;;;;;;-0.45;89.46;99240.24;1828276;76;21253;-81
2021/01/11 03:39:41;;;;;;;21.73;9.10;;;;;;;-0.45;89.25;99230.45;1817339;76;21256;-81
2021/01/11 03:42:09;;;;;;;21.97;8.98;;;;;;;-0.43;89.21;99228.79;1828517;77;21369;-81
2021/01/11 03:44:37;;;;;;;19.17;8.43;;;;;;;-0.43;89.03;99241.56;1741734;79;21496;-81
2021/01/11 03:47:05;;;;;;;19.60;8.98;;;;;;;-0.49;89.52;99243.98;1740952;81;21159;-81
2021/01/11 03:49:33;;;;;;;17.05;7.55;;;;;;;-0.52;88.96;99241.35;1759300;80;21260;-81
2021/01/11 03:52:02;;;;;;;19.62;7.92;;;;;;;-0.52;89.99;99243.91;1763159;80;21264;-80
2021/01/11 03:54:30;;;;;;;18.30;7.37;;;;;;;-0.52;89.93;99243.91;1776844;78;21185;-83
2021/01/11 03:56:58;;;;;;;21.68;8.33;;;;;;;-0.49;89.87;99244.84;1780964;78;21252;-82
2021/01/11 03:59:26;;;;;;;16.42;7.37;;;;;;;-0.49;89.66;99237.60;1755772;79;21391;-80
2021/01/11 04:01:55;;;;;;;16.40;7.58;;;;;;;-0.51;89.74;99220.96;1736334;80;21332;-80
2021/01/11 04:04:23;;;;;;;19.52;8.75;;;;;;;-0.52;90.04;99214.11;1709932;82;21340;-80
2021/01/11 04:06:53;;;;;;;23.55;10.13;;;;;;;-0.47;89.60;99212.53;1709518;80;21600;-80
2021/01/11 04:09:21;;;;;;;22.73;8.78;;;;;;;-0.45;89.50;99226.63;1686515;83;21323;-80
2021/01/11 04:11:49;;;;;;;23.60;8.55;;;;;;;-0.44;89.57;99223.22;1713297;81;21289;-81
2021/01/11 04:14:17;;;;;;;19.20;7.72;;;;;;;-0.44;89.02;99243.27;1782233;78;21283;-80
2021/01/11 04:23:25;;;;;;;17.07;8.15;;;;;;;-0.38;88.84;99248.89;1746764;77;21318;31
2021/01/11 04:25:53;;;;;;;20.65;7.60;;;;;;;-0.37;89.41;99224.23;1817480;75;21251;-80
2021/01/11 04:28:20;;;;;;;19.83;8.73;;;;;;;-0.34;89.17;99207.67;1732605;78;21253;-77
2021/01/11 04:30:54;;;;;;;16.60;7.97;;;;;;;-0.32;89.01;99188.13;1747534;76;21514;31
2021/01/11 04:33:22;;;;;;;20.12;8.28;;;;;;;-0.33;89.16;99201.75;1764549;78;21241;-82
2021/01/11 04:35:50;;;;;;;15.95;7.45;;;;;;;-0.35;88.96;99196.59;1770775;79;21141;-81
2021/01/11 04:41:30;;;;;;;17.20;8.05;;;;;;;-0.32;88.83;99198.34;1685744;79;21255;-81
2021/01/11 04:44:01;;;;;;;19.30;8.30;;;;;;;-0.33;88.85;99194.94;1749153;80;21268;-82
2021/01/11 04:49:37;;;;;;;28.07;10.03;;;;;;;-0.34;89.35;99198.30;1759404;78;21149;-82
2021/01/11 04:55:23;;;;;;;20.68;9.63;;;;;;;-0.28;89.10;99211.23;1781258;77;21115;-80
2021/01/11 04:57:54;;;;;;;26.42;10.13;;;;;;;-0.26;89.14;99218.52;1753725;80;21284;-81
2021/01/11 05:00:30;;;;;;;23.15;10.60;;;;;;;-0.22;88.58;99229.63;1724292;77;21322;-78
2021/01/11 05:03:07;;;;;;;22.45;10.58;;;;;;;-0.25;88.77;99234.70;1753556;77;22499;-78
2021/01/11 05:05:39;;;;;;;26.97;10.08;;;;;;;-0.26;88.92;99244.06;1756894;78;21275;-85
2021/01/11 05:08:07;;;;;;;22.60;8.90;;;;;;;-0.26;88.96;99230.41;1722517;80;22828;-79
2021/01/11 05:10:38;;;;;;;22.70;9.38;;;;;;;-0.25;89.11;99230.44;1761307;79;21222;-81
2021/01/11 05:13:11;;;;;;;23.75;10.78;;;;;;;-0.24;89.45;99221.96;1765852;77;21221;-82
2021/01/11 05:18:40;;;;;;;19.40;8.15;;;;;;;-0.20;89.02;99219.02;1771990;77;22897;-80
2021/01/11 05:21:08;;;;;;;21.27;9.43;;;;;;;-0.18;89.35;99231.41;1778093;76;21277;-83
2021/01/11 05:23:38;;;;;;;17.15;8.28;;;;;;;-0.13;89.25;99247.72;1787310;76;21498;-82
2021/01/11 05:26:14;;;;;;;20.75;8.73;;;;;;;-0.08;88.99;99255.08;1785043;77;21301;31
2021/01/11 05:28:42;;;;;;;18.02;8.55;;;;;;;-0.04;89.17;99261.08;1864437;74;21235;-81
2021/01/11 05:31:10;;;;;;;19.67;8.90;;;;;;;0.00;88.87;99253.95;1847423;74;21542;-81
2021/01/11 05:33:44;;;;;;;16.35;8.00;;;;;;;0.00;89.04;99259.06;1851215;74;21270;-81
2021/01/11 05:36:13;;;;;;;21.65;9.03;;;;;;;-0.02;88.94;99258.14;1815592;75;21250;-81
2021/01/11 05:38:46;;;;;;;20.23;9.40;;;;;;;-0.05;88.75;99247.45;1804263;77;21232;-84
2021/01/11 05:41:22;;;;;;;21.07;8.35;;;;;;;-0.04;88.98;99243.19;1758724;77;21522;-84
2021/01/11 05:44:11;;;;;;;19.70;8.50;;;;;;;-0.08;89.12;99227.35;1784935;79;21255;-82
2021/01/11 05:46:41;;;;;;;22.17;9.30;;;;;;;-0.07;89.18;99228.67;1789999;77;21279;-81
2021/01/11 05:49:11;;;;;;;22.60;10.32;;;;;;;-0.06;89.07;99232.08;1787700;77;21236;-84
2021/01/11 05:51:39;;;;;;;20.80;9.30;;;;;;;-0.06;89.22;99246.13;1816837;75;21271;-78
2021/01/11 05:54:25;;;;;;;28.40;11.70;;;;;;;-0.04;88.88;99242.80;1808644;77;21552;-82
2021/01/11 05:57:00;;;;;;;19.15;9.55;;;;;;;-0.06;88.73;99247.41;1808618;75;22691;31
2021/01/11 05:59:33;;;;;;;21.20;9.33;;;;;;;-0.07;89.36;99244.42;1815122;76;22819;31
2021/01/11 06:02:01;;;;;;;21.80;10.80;;;;;;;-0.02;89.01;99251.75;1812116;75;21585;-80
2021/01/11 06:04:31;;;;;;;27.22;11.90;;;;;;;0.03;89.35;99255.70;1849981;77;21236;-81
2021/01/11 06:07:00;;;;;;;26.77;10.80;;;;;;;0.06;89.20;99255.34;1857230;76;21240;-82
2021/01/11 06:09:28;;;;;;;32.45;12.35;;;;;;;0.11;88.88;99262.67;1784184;74;21315;-77
2021/01/11 06:11:56;;;;;;;26.30;11.12;;;;;;;0.12;89.32;99261.86;1795142;76;21258;-80
2021/01/11 06:14:24;;;;;;;19.48;10.43;;;;;;;0.17;88.91;99269.18;1800721;78;21174;-82
2021/01/11 06:20:26;;;;;;;24.12;12.30;;;;;;;0.13;89.19;99254.61;1773900;75;21431;31
2021/01/11 06:23:04;;;;;;;24.20;10.30;;;;;;;0.13;88.96;99266.55;1771043;76;23549;-78
2021/01/11 06:25:49;;;;;;;25.00;10.65;;;;;;;0.12;89.51;99260.58;1790155;76;21232;31
2021/01/11 06:28:31;;;;;;;22.50;9.80;;;;;;;0.14;89.34;99266.97;1799486;76;21256;-82
2021/01/11 06:31:15;;;;;;;27.58;11.28;;;;;;;0.12;89.12;99269.92;1801732;76;21293;-82
2021/01/11 06:33:45;;;;;;;26.12;12.20;;;;;;;0.14;89.29;99258.91;1751928;77;21293;-83
2021/01/11 06:36:35;;;;;;;29.57;13.22;;;;;;;0.15;89.37;99264.45;1740680;76;21210;-82
2021/01/11 06:39:09;;;;;;;23.62;11.90;;;;;;;0.17;89.46;99261.94;1707348;82;21202;-83
2021/01/11 06:41:37;;;;;;;25.75;12.55;;;;;;;0.15;89.43;99273.41;1718567;82;21340;-81
2021/01/11 06:44:08;;;;;;;29.60;13.30;;;;;;;0.25;89.49;99289.78;1762037;77;21225;-84
2021/01/11 06:46:44;;;;;;;29.50;13.03;;;;;;;0.32;89.33;99287.81;1769155;78;21307;-77
2021/01/11 06:49:27;;;;;;;30.75;13.53;;;;;;;0.37;88.63;99296.84;1735069;76;21293;-83
2021/01/11 06:52:12;;;;;;;28.45;13.88;;;;;;;0.39;89.53;99304.12;1768623;79;21269;-84
2021/01/11 07:04:44;;;;;;;21.57;10.53;;;;;;;0.62;88.40;99322.47;1751624;76;22744;31
2021/01/11 07:07:21;;;;;;;25.37;11.00;;;;;;;0.59;88.28;99323.68;1810011;78;21196;-81
2021/01/11 07:09:59;;;;;;;25.02;11.12;;;;;;;0.62;87.81;99322.87;1793909;76;21142;31
2021/01/11 07:18:43;;;;;;;22.17;8.50;;;;;;;0.67;88.12;99328.52;1742813;78;22616;31
2021/01/11 07:27:42;;;;;;;19.65;9.60;;;;;;;0.80;87.85;99339.86;1773775;77;21218;31
2021/01/11 07:30:11;;;;;;;22.27;10.50;;;;;;;0.77;87.66;99338.51;1730593;80;21150;-81
2021/01/11 07:32:39;;;;;;;28.45;11.48;;;;;;;0.77;87.71;99338.51;1746131;80;21746;-84
2021/01/11 07:35:09;;;;;;;29.92;12.65;;;;;;;0.80;87.79;99332.18;1770213;79;21343;-82
2021/01/11 07:37:37;;;;;;;19.55;9.63;;;;;;;0.83;87.76;99339.89;1765337;79;21191;-83
2021/01/11 07:40:09;;;;;;;19.73;8.78;;;;;;;0.84;87.63;99326.70;1766402;78;21264;-83
2021/01/11 07:42:44;;;;;;;21.33;9.88;;;;;;;0.82;87.38;99333.07;1750350;76;21311;31
2021/01/11 07:45:13;;;;;;;22.05;9.68;;;;;;;0.87;87.73;99333.99;1777440;75;21291;-80
2021/01/11 07:47:51;;;;;;;24.05;10.40;;;;;;;0.91;87.38;99349.00;1767502;78;21233;31
2021/01/11 07:50:20;;;;;;;24.80;10.55;;;;;;;0.89;87.40;99351.95;1813987;74;21277;-84
2021/01/11 07:52:49;;;;;;;23.87;9.63;;;;;;;0.92;87.29;99350.31;1814060;76;21595;-82
2021/01/11 07:55:22;;;;;;;33.30;16.07;;;;;;;0.91;87.54;99349.00;1826288;77;21170;-84
2021/01/11 07:57:51;;;;;;;25.08;13.28;;;;;;;0.92;87.66;99349.45;1826669;74;21233;-83
2021/01/11 08:00:22;;;;;;;30.65;16.15;;;;;;;1.00;87.85;99355.57;1796147;77;21871;-85
2021/01/11 08:02:51;;;;;;;21.33;12.50;;;;;;;1.06;87.62;99367.63;1786351;80;21135;-87
2021/01/11 08:05:24;;;;;;;21.57;12.05;;;;;;;1.10;87.56;99368.97;1789973;80;21329;-81
2021/01/11 08:08:06;;;;;;;19.40;10.43;;;;;;;1.10;87.46;99367.69;1769287;81;21248;-83
2021/01/11 08:10:35;;;;;;;19.37;8.98;;;;;;;1.06;86.87;99372.31;1764518;81;21256;-84
2021/01/11 08:13:22;;;;;;;18.80;8.87;;;;;;;1.06;87.37;99368.91;1759696;75;21317;31
2021/01/11 08:15:54;;;;;;;21.90;9.93;;;;;;;1.11;87.33;99381.34;1811620;77;21250;-84
2021/01/11 08:18:22;;;;;;;21.20;9.90;;;;;;;1.12;87.12;99390.77;1835536;77;21549;-81
2021/01/11 08:20:50;;;;;;;22.35;11.12;;;;;;;1.13;87.06;99396.32;1736721;77;21331;-83
2021/01/11 08:23:22;;;;;;;25.35;12.35;;;;;;;1.19;87.13;99397.70;1728906;80;21297;-83
2021/01/11 08:25:58;;;;;;;21.33;10.72;;;;;;;1.16;86.91;99395.11;1739539;78;21330;31
2021/01/11 08:28:46;;;;;;;21.05;10.88;;;;;;;1.23;87.07;99398.20;1757749;77;21193;31
2021/01/11 08:31:14;;;;;;;23.65;10.88;;;;;;;1.26;86.93;99400.83;1720162;81;21340;-80
2021/01/11 08:33:42;;;;;;;22.02;10.45;;;;;;;1.31;86.89;99404.74;1709311;82;21462;-90
2021/01/11 08:36:18;;;;;;;21.05;10.50;;;;;;;1.34;86.64;99413.77;1724739;82;21228;-88
2021/01/11 08:39:08;;;;;;;19.02;9.68;;;;;;;1.43;86.60;99407.93;1781734;78;21110;-86
2021/01/11 08:41:49;;;;;;;29.77;17.13;;;;;;;1.57;86.21;99425.67;1838311;75;28717;-87
2021/01/11 08:44:34;;;;;;;24.72;11.97;;;;;;;1.60;86.34;99428.30;1765098;77;21166;-89
2021/01/11 08:47:07;;;;;;;19.80;9.25;;;;;;;1.71;86.57;99419.09;1806584;77;21531;-88
2021/01/11 08:49:57;;;;;;;21.42;9.15;;;;;;;1.76;85.73;99420.00;1804461;77;21173;-85
2021/01/11 08:52:34;;;;;;;19.95;8.73;;;;;;;1.67;85.42;99401.94;1738016;78;21232;-83
2021/01/11 08:55:14;;;;;;;21.10;9.25;;;;;;;1.81;85.09;99418.81;1747633;78;21252;-84
2021/01/11 08:57:55;;;;;;;21.40;10.05;;;;;;;1.89;84.85;99420.19;1731451;80;21132;-85
2021/01/11 09:00:23;;;;;;;26.68;12.10;;;;;;;2.00;84.42;99426.34;1784294;78;21347;-84
2021/01/11 09:02:51;;;;;;;21.40;10.18;;;;;;;2.14;85.28;99426.55;1829438;77;22368;-85
2021/01/11 09:05:23;;;;;;;23.77;10.25;;;;;;;2.16;84.89;99433.41;1803071;78;21429;-89
2021/01/11 09:07:53;;;;;;;18.32;9.85;;;;;;;2.19;85.16;99433.90;1772624;78;21317;-88
2021/01/11 09:13:19;;;;;;;18.17;8.55;;;;;;;2.31;84.54;99419.95;1802047;78;22806;-89
2021/01/11 09:15:47;;;;;;;15.90;9.00;;;;;;;2.24;84.17;99421.13;1792580;76;21327;-89
2021/01/11 09:18:15;;;;;;;19.23;9.03;;;;;;;2.22;83.36;99417.68;1752788;80;21172;-86
2021/01/11 09:20:45;;;;;;;20.05;10.40;;;;;;;1.98;83.61;99385.28;1745463;81;21264;-90
2021/01/11 09:23:14;;;;;;;19.42;9.98;;;;;;;2.08;83.79;99414.92;1788502;78;21268;-89
2021/01/11 09:25:42;;;;;;;22.98;10.63;;;;;;;2.14;83.91;99420.98;1702571;78;21174;-89
2021/01/11 09:28:10;;;;;;;18.73;9.48;;;;;;;2.06;83.37;99434.55;1702610;83;21170;-86
2021/01/11 09:30:38;;;;;;;13.70;7.73;;;;;;;2.17;83.86;99431.73;1703996;83;21782;-87
2021/01/11 09:33:06;;;;;;;16.42;7.87;;;;;;;2.21;83.83;99426.20;1701906;83;21352;-89
2021/01/11 09:35:34;;;;;;;16.50;7.22;;;;;;;2.22;83.83;99428.80;1786411;78;21098;-90
2021/01/11 09:38:02;;;;;;;28.42;10.38;;;;;;;2.25;83.27;99430.13;1813039;77;21724;-88
2021/01/11 09:40:30;;;;;;;15.65;8.78;;;;;;;2.35;83.26;99431.13;1811273;78;21122;-89
2021/01/11 09:42:57;;;;;;;20.70;10.18;;;;;;;2.39;83.04;99429.04;1817307;77;21279;-89
2021/01/11 09:45:25;;;;;;;17.98;9.55;;;;;;;2.48;83.16;99427.85;1815509;77;21315;-89
2021/01/11 09:47:53;;;;;;;17.35;9.38;;;;;;;2.56;83.40;99442.92;1854438;76;21409;-87
2021/01/11 09:50:21;;;;;;;18.05;9.35;;;;;;;2.58;83.30;99441.67;1855427;76;21770;-88
2021/01/11 09:52:50;;;;;;;22.37;9.35;;;;;;;2.48;83.15;99443.68;1861080;76;21156;-87
2021/01/11 09:55:17;;;;;;;13.90;8.28;;;;;;;2.54;82.59;99447.61;1729412;77;21238;-85
2021/01/11 09:57:45;;;;;;;15.23;8.90;;;;;;;2.60;82.67;99446.40;1716568;83;21189;-87
2021/01/11 10:00:16;;;;;;;18.52;8.68;;;;;;;2.66;82.48;99448.19;1714257;83;21170;-88
2021/01/11 10:02:48;;;;;;;15.25;8.40;;;;;;;2.74;82.98;99449.14;1736898;79;21142;-87
2021/01/11 10:05:17;;;;;;;18.45;9.85;;;;;;;2.76;83.04;99443.17;1801841;78;21229;-84
2021/01/11 10:07:45;;;;;;;15.60;9.00;;;;;;;2.75;82.31;99445.31;1806369;79;21142;-83
2021/01/11 10:10:14;;;;;;;14.58;8.23;;;;;;;2.82;82.46;99438.53;1795403;79;21281;-83
2021/01/11 10:12:42;;;;;;;17.25;8.53;;;;;;;2.81;82.07;99441.11;1796346;79;21229;-84
2021/01/11 10:15:11;;;;;;;19.02;9.28;;;;;;;2.84;82.03;99435.56;1810903;78;21241;-85
2021/01/11 10:17:39;;;;;;;13.08;6.62;;;;;;;2.81;81.17;99427.84;1798404;79;21301;-89
2021/01/11 10:20:10;;;;;;;17.65;7.80;;;;;;;2.87;81.11;99429.62;1767442;79;21143;-90
2021/01/11 10:22:39;;;;;;;13.55;6.95;;;;;;;2.88;81.14;99426.19;1745292;79;21263;-92
2021/01/11 10:25:08;;;;;;;14.63;7.33;;;;;;;2.92;81.75;99426.23;1710692;78;21346;-91
2021/01/11 10:27:37;;;;;;;15.25;6.55;;;;;;;2.99;81.71;99422.05;1781909;78;21104;-92
2021/01/11 10:30:07;;;;;;;21.23;9.03;;;;;;;3.06;82.54;99426.38;1802725;77;21169;-91
2021/01/11 10:32:35;;;;;;;14.05;7.58;;;;;;;3.10;81.98;99427.28;1840493;77;21366;-91
2021/01/11 10:35:03;;;;;;;14.23;8.13;;;;;;;3.13;80.53;99426.05;1837611;76;21219;-92
2021/01/11 10:37:31;;;;;;;15.18;8.75;;;;;;;3.25;80.52;99429.16;1845557;77;21684;-92
2021/01/11 10:39:59;;;;;;;16.45;8.78;;;;;;;3.15;80.33;99430.34;1812387;78;21247;-92
2021/01/11 10:42:27;;;;;;;13.60;8.55;;;;;;;3.01;80.60;99428.48;1822887;77;21268;-91
2021/01/11 10:44:55;;;;;;;13.83;7.92;;;;;;;2.88;81.28;99426.19;1816143;77;21145;-92
2021/01/11 10:47:23;;;;;;;15.05;9.28;;;;;;;2.85;80.68;99414.62;1820380;77;21106;-91
2021/01/11 10:49:52;;;;;;;17.95;10.05;;;;;;;2.82;81.04;99416.70;1820179;77;21255;-91
2021/01/11 10:52:20;;;;;;;16.52;9.28;;;;;;;2.88;81.47;99407.78;1824225;77;21251;-89
2021/01/11 10:54:48;;;;;;;19.48;9.75;;;;;;;2.79;81.37;99403.85;1802788;78;21263;-91
2021/01/11 10:57:15;;;;;;;17.45;8.75;;;;;;;2.83;81.59;99406.03;1815796;77;21633;-89
2021/01/11 10:59:43;;;;;;;16.60;7.83;;;;;;;2.77;81.34;99406.39;1810807;77;21235;-90
2021/01/11 11:02:11;;;;;;;14.18;7.58;;;;;;;2.72;81.44;99407.18;1821346;77;21279;-90
2021/01/11 11:04:39;;;;;;;18.55;9.10;;;;;;;2.75;81.53;99396.96;1810863;78;21125;-88
2021/01/11 11:07:07;;;;;;;21.48;9.25;;;;;;;2.77;81.59;99394.84;1825302;77;21295;-88
2021/01/11 11:09:35;;;;;;;20.65;10.40;;;;;;;2.84;81.61;99396.19;1822948;77;21657;-88
2021/01/11 11:12:03;;;;;;;26.87;12.73;;;;;;;3.00;82.00;99399.34;1820592;77;21156;-92
2021/01/11 11:14:31;;;;;;;31.05;14.87;;;;;;;3.07;81.47;99398.58;1814910;77;21307;-91
2021/01/11 11:16:58;;;;;;;24.75;12.30;;;;;;;3.15;81.12;99396.94;1830139;77;21227;-90
2021/01/11 11:19:26;;;;;;;21.73;12.58;;;;;;;3.30;82.07;99394.95;1814275;78;21252;-91
2021/01/11 11:21:54;;;;;;;18.98;11.15;;;;;;;3.32;80.62;99397.11;1819787;77;21251;-88
2021/01/11 11:24:22;;;;;;;21.35;11.80;;;;;;;3.45;81.25;99393.36;1799620;77;21134;-92
2021/01/11 11:26:50;;;;;;;22.10;11.15;;;;;;;3.41;79.68;99385.19;1814927;77;21279;-91
2021/01/11 14:46:23;;;;;;;33.42;16.07;;;;;;;2.23;81.93;99399.75;1787866;79;22989;-90
2021/01/11 14:48:56;;;;;;;43.78;17.95;;;;;;;2.21;82.14;99406.96;1635245;85;21168;-91
2021/01/11 14:51:24;;;;;;;32.15;15.78;;;;;;;2.19;81.79;99406.97;1674336;84;21140;-88
2021/01/11 14:53:52;;;;;;;33.50;16.42;;;;;;;2.15;81.55;99399.64;1674208;84;21197;-89
2021/01/11 14:56:20;;;;;;;34.08;16.15;;;;;;;2.15;81.63;99398.36;1685624;84;21831;-91
2021/01/11 14:58:49;;;;;;;38.67;16.50;;;;;;;2.11;81.94;99404.69;1675227;84;21335;-88
2021/01/11 15:01:25;;;;;;;36.28;13.60;;;;;;;2.13;82.43;99410.30;1678562;81;21208;-90
2021/01/11 15:03:54;;;;;;;89.65;32.03;;;;;;;2.12;83.04;99410.27;1716414;79;21491;-89
2021/01/11 15:06:22;;;;;;;73.90;29.80;;;;;;;2.18;82.46;99415.48;1728173;83;21232;-88
2021/01/11 15:08:50;;;;;;;42.95;18.52;;;;;;;2.27;83.71;99416.02;1726244;81;21202;-88
2021/01/11 15:11:31;;;;;;;;;;;;;;;;;;;;;
2021/01/11 15:13:59;;;;;;;48.10;17.85;;;;;;;2.58;84.03;99418.14;1842711;77;23033;-87
2021/01/11 15:16:31;;;;;;;55.33;21.77;;;;;;;2.66;83.51;99418.66;1800975;77;21271;-89
2021/01/11 15:18:59;;;;;;;90.83;26.97;;;;;;;2.69;82.19;99413.58;1793429;78;21156;-89
2021/01/11 15:21:26;;;;;;;71.50;26.97;;;;;;;2.59;81.71;99412.61;1755232;81;21320;-90
2021/01/11 15:23:54;;;;;;;91.70;31.23;;;;;;;2.51;81.65;99406.52;1794797;79;21267;-89
2021/01/11 15:26:22;;;;;;;70.67;25.43;;;;;;;2.39;82.09;99418.34;1796009;78;21255;-90
2021/01/11 15:28:51;;;;;;;73.25;24.70;;;;;;;2.28;82.56;99403.22;1788690;78;21323;-85
2021/01/11 15:31:24;;;;;;;64.32;25.95;;;;;;;2.24;82.94;99414.72;1791164;78;21284;-89
2021/01/11 15:33:53;;;;;;;77.82;32.70;;;;;;;2.20;82.98;99422.78;1739976;79;21157;-90
2021/01/11 15:36:30;;;;;;;68.20;30.45;;;;;;;2.14;83.07;99426.12;1722979;80;21221;-84
2021/01/11 15:39:01;;;;;;;53.55;25.23;;;;;;;2.13;83.28;99433.78;1740029;80;21284;-85
2021/01/11 15:41:29;;;;;;;40.40;18.62;;;;;;;2.11;83.08;99431.62;1731172;80;21228;-84
2021/01/11 15:43:57;;;;;;;42.25;18.90;;;;;;;2.10;83.93;99440.17;1733469;80;21233;-83
2021/01/11 15:46:29;;;;;;;49.38;18.85;;;;;;;2.02;83.52;99440.05;1687168;81;21124;-90
2021/01/11 15:48:57;;;;;;;58.63;20.00;;;;;;;1.98;83.81;99445.98;1674313;84;21228;-88
2021/01/11 15:51:31;;;;;;;58.30;26.40;;;;;;;1.96;83.44;99452.78;1686220;83;21366;-84
2021/01/11 15:54:01;;;;;;;71.70;26.65;;;;;;;1.93;83.23;99448.88;1720411;82;21677;-83
2021/01/11 16:21:34;;;;;;;39.95;17.67;;;;;;;1.81;84.25;99446.13;1812344;79;23032;-88
2021/01/11 16:24:04;;;;;;;53.10;21.52;;;;;;;1.73;84.15;99450.73;1783326;80;21131;-87
2021/01/11 16:26:33;;;;;;;57.23;22.82;;;;;;;1.72;84.90;99454.55;1657591;78;21618;-88
2021/01/11 16:29:05;;;;;;;36.85;17.02;;;;;;;1.69;83.85;99448.08;1710868;81;21279;-85
2021/01/11 16:31:34;;;;;;;48.42;20.43;;;;;;;1.65;84.86;99453.98;1711865;80;21269;-80
2021/01/11 16:34:02;;;;;;;46.83;19.12;;;;;;;1.65;85.07;99453.98;1716554;82;21319;-83
2021/01/11 16:36:30;;;;;;;49.95;18.80;;;;;;;1.65;85.16;99454.88;1715575;80;21260;-83
2021/01/11 16:39:01;;;;;;;50.43;20.17;;;;;;;1.67;84.55;99458.72;1709838;82;21110;-82
2021/01/11 16:41:31;;;;;;;53.75;21.68;;;;;;;1.64;84.96;99458.27;1709973;82;21259;-81
2021/01/11 16:44:07;;;;;;;55.43;23.65;;;;;;;1.61;85.06;99463.32;1742540;79;22003;-84
2021/01/11 16:52:42;;;;;;;53.23;23.42;;;;;;;1.60;84.99;99461.61;1684263;82;21316;-88
2021/01/11 16:55:11;;;;;;;55.28;23.57;;;;;;;1.61;84.47;99461.19;1720198;79;21382;-91
2021/01/11 16:57:39;;;;;;;56.02;24.77;;;;;;;1.55;84.61;99456.81;1721435;82;21197;-88
2021/01/11 17:00:08;;;;;;;59.88;25.25;;;;;;;1.57;85.04;99457.30;1701591;83;21189;-89
2021/01/11 17:02:36;;;;;;;61.35;27.52;;;;;;;1.59;85.12;99461.16;1706033;82;21195;-90
2021/01/11 17:05:05;;;;;;;71.77;27.62;;;;;;;1.54;85.44;99460.23;1710532;82;21150;-90
2021/01/11 17:07:33;;;;;;;59.18;22.93;;;;;;;1.53;85.73;99458.48;1710694;82;21200;-87
2021/01/11 17:10:01;;;;;;;65.70;25.92;;;;;;;1.50;85.60;99454.61;1710060;82;21308;-84
2021/01/11 17:12:30;;;;;;;70.22;29.02;;;;;;;1.46;85.79;99453.69;1721929;80;21582;-84
2021/01/11 17:15:11;;;;;;;67.25;26.35;;;;;;;1.45;84.94;99448.53;1714070;78;21255;31
2021/01/11 17:17:40;;;;;;;54.88;25.23;;;;;;;1.41;85.87;99446.33;1746739;80;21176;-82
2021/01/11 17:20:10;;;;;;;53.33;22.93;;;;;;;1.43;85.95;99449.78;1744494;80;21283;-82
2021/01/11 17:22:39;;;;;;;57.15;23.00;;;;;;;1.47;85.46;99448.14;1743586;80;21558;-81